sensor_id;sensor_type;location;lat;lon;timestamp;P1;durP1;ratioP1;P2;durP2;ratioP2
64235;SDS011;50564;47.402;9.740;2023-06-22T00:01:21;8.95;;;4.65;;
64235;SDS011;50564;47.402;9.740;2023-06-22T00:06:22;15.75;;;5.25;;
64235;SDS011;50564;47.402;9.740;2023-06-22T00:11:23;11.40;;;4.60;;
64235;SDS011;50564;47.402;9.740;2023-06-22T00:16:24;10.77;;;4.78;;
64235;SDS011;50564;47.402;9.740;2023-06-22T00:21:25;11.20;;;4.70;;
64235;SDS011;50564;47.402;9.740;2023-06-22T00:26:25;12.20;;;4.70;;
64235;SDS011;50564;47.402;9.740;2023-06-22T00:31:26;9.35;;;4.40;;
64235;SDS011;50564;47.402;9.740;2023-06-22T00:36:28;11.35;;;4.88;;
64235;SDS011;50564;47.402;9.740;2023-06-22T00:41:30;11.20;;;4.85;;
64235;SDS011;50564;47.402;9.740;2023-06-22T00:46:31;12.45;;;4.57;;
64235;SDS011;50564;47.402;9.740;2023-06-22T00:51:33;12.52;;;5.30;;
64235;SDS011;50564;47.402;9.740;2023-06-22T00:56:39;11.90;;;4.70;;
64235;SDS011;50564;47.402;9.740;2023-06-22T01:01:41;10.45;;;4.90;;
64235;SDS011;50564;47.402;9.740;2023-06-22T01:06:45;10.30;;;4.25;;
64235;SDS011;50564;47.402;9.740;2023-06-22T01:11:57;12.45;;;4.25;;
64235;SDS011;50564;47.402;9.740;2023-06-22T01:17:01;14.52;;;4.85;;
64235;SDS011;50564;47.402;9.740;2023-06-22T01:22:02;16.90;;;4.68;;
64235;SDS011;50564;47.402;9.740;2023-06-22T01:32:22;10.43;;;4.97;;
64235;SDS011;50564;47.402;9.740;2023-06-22T01:37:22;14.50;;;4.88;;
64235;SDS011;50564;47.402;9.740;2023-06-22T01:42:25;13.63;;;4.95;;
64235;SDS011;50564;47.402;9.740;2023-06-22T01:47:26;10.82;;;4.20;;
64235;SDS011;50564;47.402;9.740;2023-06-22T01:52:27;16.50;;;4.60;;
64235;SDS011;50564;47.402;9.740;2023-06-22T01:57:30;11.98;;;4.97;;
64235;SDS011;50564;47.402;9.740;2023-06-22T02:02:37;12.18;;;4.70;;
64235;SDS011;50564;47.402;9.740;2023-06-22T02:08:02;14.05;;;6.05;;
64235;SDS011;50564;47.402;9.740;2023-06-22T02:13:06;11.77;;;5.68;;
64235;SDS011;50564;47.402;9.740;2023-06-22T02:18:08;12.68;;;6.03;;
64235;SDS011;50564;47.402;9.740;2023-06-22T02:23:09;14.65;;;6.28;;
64235;SDS011;50564;47.402;9.740;2023-06-22T02:28:09;16.10;;;7.00;;
64235;SDS011;50564;47.402;9.740;2023-06-22T02:33:11;11.23;;;5.80;;
64235;SDS011;50564;47.402;9.740;2023-06-22T02:38:12;12.90;;;6.47;;
64235;SDS011;50564;47.402;9.740;2023-06-22T02:43:13;13.25;;;6.22;;
64235;SDS011;50564;47.402;9.740;2023-06-22T02:48:13;11.18;;;5.00;;
64235;SDS011;50564;47.402;9.740;2023-06-22T02:53:14;9.90;;;5.05;;
64235;SDS011;50564;47.402;9.740;2023-06-22T02:58:19;14.75;;;6.10;;
64235;SDS011;50564;47.402;9.740;2023-06-22T03:03:20;16.25;;;6.18;;
64235;SDS011;50564;47.402;9.740;2023-06-22T03:08:20;16.52;;;6.43;;
64235;SDS011;50564;47.402;9.740;2023-06-22T03:13:21;11.43;;;5.43;;
64235;SDS011;50564;47.402;9.740;2023-06-22T03:18:21;10.95;;;6.25;;
64235;SDS011;50564;47.402;9.740;2023-06-22T03:23:22;12.85;;;5.70;;
64235;SDS011;50564;47.402;9.740;2023-06-22T03:28:23;8.82;;;4.95;;
64235;SDS011;50564;47.402;9.740;2023-06-22T03:33:24;16.48;;;6.15;;
64235;SDS011;50564;47.402;9.740;2023-06-22T03:38:24;14.02;;;5.88;;
64235;SDS011;50564;47.402;9.740;2023-06-22T03:43:29;9.68;;;4.97;;
64235;SDS011;50564;47.402;9.740;2023-06-22T03:48:30;13.38;;;5.45;;
64235;SDS011;50564;47.402;9.740;2023-06-22T03:53:31;13.23;;;5.45;;
64235;SDS011;50564;47.402;9.740;2023-06-22T03:58:31;13.75;;;5.43;;
64235;SDS011;50564;47.402;9.740;2023-06-22T04:03:33;15.02;;;5.88;;
64235;SDS011;50564;47.402;9.740;2023-06-22T04:08:34;11.23;;;5.40;;
64235;SDS011;50564;47.402;9.740;2023-06-22T04:13:34;17.30;;;6.28;;
64235;SDS011;50564;47.402;9.740;2023-06-22T04:18:35;11.82;;;5.22;;
64235;SDS011;50564;47.402;9.740;2023-06-22T04:23:36;12.90;;;5.57;;
64235;SDS011;50564;47.402;9.740;2023-06-22T04:28:36;11.68;;;5.22;;
64235;SDS011;50564;47.402;9.740;2023-06-22T04:33:37;11.57;;;5.15;;
64235;SDS011;50564;47.402;9.740;2023-06-22T04:38:40;17.13;;;6.07;;
64235;SDS011;50564;47.402;9.740;2023-06-22T04:43:42;17.25;;;6.72;;
64235;SDS011;50564;47.402;9.740;2023-06-22T04:48:43;11.73;;;6.20;;
64235;SDS011;50564;47.402;9.740;2023-06-22T04:53:43;12.25;;;5.93;;
64235;SDS011;50564;47.402;9.740;2023-06-22T04:58:44;10.43;;;5.40;;
64235;SDS011;50564;47.402;9.740;2023-06-22T05:03:44;13.65;;;5.55;;
64235;SDS011;50564;47.402;9.740;2023-06-22T05:08:45;12.68;;;5.47;;
64235;SDS011;50564;47.402;9.740;2023-06-22T05:13:45;15.45;;;6.15;;
64235;SDS011;50564;47.402;9.740;2023-06-22T05:18:46;11.07;;;5.70;;
64235;SDS011;50564;47.402;9.740;2023-06-22T05:23:47;11.82;;;5.93;;
64235;SDS011;50564;47.402;9.740;2023-06-22T05:28:47;13.43;;;6.25;;
64235;SDS011;50564;47.402;9.740;2023-06-22T05:33:49;14.35;;;6.88;;
64235;SDS011;50564;47.402;9.740;2023-06-22T05:38:52;14.98;;;8.93;;
64235;SDS011;50564;47.402;9.740;2023-06-22T05:43:52;41.20;;;14.50;;
64235;SDS011;50564;47.402;9.740;2023-06-22T05:48:53;18.58;;;8.23;;
64235;SDS011;50564;47.402;9.740;2023-06-22T05:53:54;15.82;;;7.72;;
64235;SDS011;50564;47.402;9.740;2023-06-22T05:58:54;12.40;;;6.55;;
64235;SDS011;50564;47.402;9.740;2023-06-22T06:03:55;15.50;;;7.30;;
64235;SDS011;50564;47.402;9.740;2023-06-22T06:08:56;15.25;;;8.65;;
64235;SDS011;50564;47.402;9.740;2023-06-22T06:13:56;16.55;;;7.88;;
64235;SDS011;50564;47.402;9.740;2023-06-22T06:18:57;17.13;;;8.13;;
64235;SDS011;50564;47.402;9.740;2023-06-22T06:23:58;17.20;;;7.25;;
64235;SDS011;50564;47.402;9.740;2023-06-22T06:28:59;17.92;;;8.63;;
64235;SDS011;50564;47.402;9.740;2023-06-22T06:34:00;14.65;;;6.80;;
64235;SDS011;50564;47.402;9.740;2023-06-22T06:39:01;15.60;;;7.28;;
64235;SDS011;50564;47.402;9.740;2023-06-22T06:44:03;14.57;;;7.53;;
64235;SDS011;50564;47.402;9.740;2023-06-22T06:49:04;12.82;;;7.32;;
64235;SDS011;50564;47.402;9.740;2023-06-22T06:54:04;15.15;;;7.43;;
64235;SDS011;50564;47.402;9.740;2023-06-22T06:59:05;16.23;;;7.60;;
64235;SDS011;50564;47.402;9.740;2023-06-22T07:04:06;17.38;;;7.28;;
64235;SDS011;50564;47.402;9.740;2023-06-22T07:09:06;13.63;;;7.47;;
64235;SDS011;50564;47.402;9.740;2023-06-22T07:14:07;13.00;;;7.18;;
64235;SDS011;50564;47.402;9.740;2023-06-22T07:19:08;15.75;;;8.15;;
64235;SDS011;50564;47.402;9.740;2023-06-22T07:24:11;15.13;;;7.22;;
64235;SDS011;50564;47.402;9.740;2023-06-22T07:29:11;11.55;;;6.50;;
64235;SDS011;50564;47.402;9.740;2023-06-22T07:34:12;15.23;;;7.88;;
64235;SDS011;50564;47.402;9.740;2023-06-22T07:39:13;13.75;;;7.40;;
64235;SDS011;50564;47.402;9.740;2023-06-22T07:44:14;11.77;;;6.57;;
64235;SDS011;50564;47.402;9.740;2023-06-22T07:49:15;12.15;;;6.90;;
64235;SDS011;50564;47.402;9.740;2023-06-22T07:54:17;16.85;;;8.18;;
64235;SDS011;50564;47.402;9.740;2023-06-22T07:59:17;19.42;;;8.95;;
64235;SDS011;50564;47.402;9.740;2023-06-22T08:04:18;14.25;;;7.43;;
64235;SDS011;50564;47.402;9.740;2023-06-22T08:09:19;16.60;;;8.95;;
64235;SDS011;50564;47.402;9.740;2023-06-22T08:14:19;16.17;;;8.73;;
64235;SDS011;50564;47.402;9.740;2023-06-22T08:19:20;14.32;;;8.63;;
64235;SDS011;50564;47.402;9.740;2023-06-22T08:24:21;17.85;;;8.90;;
64235;SDS011;50564;47.402;9.740;2023-06-22T08:29:21;16.83;;;9.43;;
64235;SDS011;50564;47.402;9.740;2023-06-22T08:34:22;19.48;;;9.60;;
64235;SDS011;50564;47.402;9.740;2023-06-22T08:39:25;16.95;;;8.25;;
64235;SDS011;50564;47.402;9.740;2023-06-22T08:44:26;16.38;;;9.18;;
64235;SDS011;50564;47.402;9.740;2023-06-22T08:49:27;15.68;;;8.70;;
64235;SDS011;50564;47.402;9.740;2023-06-22T08:54:27;18.23;;;10.00;;
64235;SDS011;50564;47.402;9.740;2023-06-22T08:59:28;21.33;;;10.77;;
64235;SDS011;50564;47.402;9.740;2023-06-22T09:04:29;19.65;;;10.48;;
64235;SDS011;50564;47.402;9.740;2023-06-22T09:09:29;21.10;;;10.10;;
64235;SDS011;50564;47.402;9.740;2023-06-22T09:14:30;16.73;;;9.23;;
64235;SDS011;50564;47.402;9.740;2023-06-22T09:19:31;15.38;;;9.57;;
64235;SDS011;50564;47.402;9.740;2023-06-22T09:24:32;16.63;;;9.50;;
64235;SDS011;50564;47.402;9.740;2023-06-22T09:29:33;15.48;;;9.20;;
64235;SDS011;50564;47.402;9.740;2023-06-22T09:34:34;17.23;;;9.05;;
64235;SDS011;50564;47.402;9.740;2023-06-22T09:39:34;17.45;;;10.07;;
64235;SDS011;50564;47.402;9.740;2023-06-22T09:44:36;16.25;;;8.88;;
64235;SDS011;50564;47.402;9.740;2023-06-22T09:49:36;16.15;;;9.77;;
64235;SDS011;50564;47.402;9.740;2023-06-22T09:54:37;18.23;;;10.25;;
64235;SDS011;50564;47.402;9.740;2023-06-22T09:59:38;20.30;;;10.88;;
64235;SDS011;50564;47.402;9.740;2023-06-22T10:04:40;21.08;;;11.07;;
64235;SDS011;50564;47.402;9.740;2023-06-22T10:09:40;15.02;;;8.60;;
64235;SDS011;50564;47.402;9.740;2023-06-22T10:14:41;18.23;;;9.75;;
64235;SDS011;50564;47.402;9.740;2023-06-22T10:19:42;22.35;;;9.98;;
64235;SDS011;50564;47.402;9.740;2023-06-22T10:24:42;15.68;;;10.27;;
64235;SDS011;50564;47.402;9.740;2023-06-22T10:29:44;15.45;;;9.30;;
64235;SDS011;50564;47.402;9.740;2023-06-22T10:34:45;17.67;;;9.27;;
64235;SDS011;50564;47.402;9.740;2023-06-22T10:39:45;14.73;;;7.63;;
64235;SDS011;50564;47.402;9.740;2023-06-22T10:44:46;15.63;;;9.50;;
64235;SDS011;50564;47.402;9.740;2023-06-22T10:49:47;14.75;;;7.78;;
64235;SDS011;50564;47.402;9.740;2023-06-22T10:54:47;15.15;;;7.03;;
64235;SDS011;50564;47.402;9.740;2023-06-22T10:59:48;14.02;;;7.63;;
64235;SDS011;50564;47.402;9.740;2023-06-22T11:04:48;16.73;;;7.70;;
64235;SDS011;50564;47.402;9.740;2023-06-22T11:09:50;10.52;;;6.53;;
64235;SDS011;50564;47.402;9.740;2023-06-22T11:14:50;14.07;;;7.18;;
64235;SDS011;50564;47.402;9.740;2023-06-22T11:19:51;14.00;;;7.63;;
64235;SDS011;50564;47.402;9.740;2023-06-22T11:24:52;16.48;;;7.70;;
64235;SDS011;50564;47.402;9.740;2023-06-22T11:29:53;17.45;;;6.72;;
64235;SDS011;50564;47.402;9.740;2023-06-22T11:34:53;13.63;;;7.32;;
64235;SDS011;50564;47.402;9.740;2023-06-22T11:39:54;17.40;;;7.10;;
64235;SDS011;50564;47.402;9.740;2023-06-22T11:44:55;16.08;;;7.30;;
64235;SDS011;50564;47.402;9.740;2023-06-22T11:49:55;13.57;;;7.60;;
64235;SDS011;50564;47.402;9.740;2023-06-22T11:54:56;15.63;;;7.00;;
64235;SDS011;50564;47.402;9.740;2023-06-22T11:59:56;12.10;;;6.40;;
64235;SDS011;50564;47.402;9.740;2023-06-22T12:04:57;14.82;;;6.93;;
64235;SDS011;50564;47.402;9.740;2023-06-22T12:09:58;16.52;;;8.00;;
64235;SDS011;50564;47.402;9.740;2023-06-22T12:14:58;14.63;;;7.10;;
64235;SDS011;50564;47.402;9.740;2023-06-22T12:20:03;12.10;;;6.23;;
64235;SDS011;50564;47.402;9.740;2023-06-22T12:25:08;14.85;;;7.30;;
64235;SDS011;50564;47.402;9.740;2023-06-22T12:30:09;14.30;;;6.70;;
64235;SDS011;50564;47.402;9.740;2023-06-22T12:35:09;18.42;;;6.07;;
64235;SDS011;50564;47.402;9.740;2023-06-22T12:40:14;19.77;;;8.50;;
64235;SDS011;50564;47.402;9.740;2023-06-22T12:45:14;17.73;;;7.85;;
64235;SDS011;50564;47.402;9.740;2023-06-22T12:50:15;15.65;;;6.68;;
64235;SDS011;50564;47.402;9.740;2023-06-22T12:55:16;14.63;;;6.75;;
64235;SDS011;50564;47.402;9.740;2023-06-22T13:00:16;15.93;;;7.90;;
64235;SDS011;50564;47.402;9.740;2023-06-22T13:05:17;16.48;;;6.60;;
64235;SDS011;50564;47.402;9.740;2023-06-22T13:10:18;17.15;;;6.53;;
64235;SDS011;50564;47.402;9.740;2023-06-22T13:15:19;19.35;;;6.43;;
64235;SDS011;50564;47.402;9.740;2023-06-22T13:20:20;15.65;;;6.35;;
64235;SDS011;50564;47.402;9.740;2023-06-22T13:25:20;13.55;;;6.28;;
64235;SDS011;50564;47.402;9.740;2023-06-22T13:30:24;13.20;;;5.63;;
64235;SDS011;50564;47.402;9.740;2023-06-22T13:35:24;15.00;;;5.60;;
64235;SDS011;50564;47.402;9.740;2023-06-22T13:40:25;17.17;;;6.32;;
64235;SDS011;50564;47.402;9.740;2023-06-22T13:45:25;13.82;;;6.13;;
64235;SDS011;50564;47.402;9.740;2023-06-22T13:50:26;15.60;;;6.70;;
64235;SDS011;50564;47.402;9.740;2023-06-22T13:55:27;12.23;;;6.68;;
64235;SDS011;50564;47.402;9.740;2023-06-22T14:00:27;16.17;;;6.93;;
64235;SDS011;50564;47.402;9.740;2023-06-22T14:05:28;17.63;;;6.80;;
64235;SDS011;50564;47.402;9.740;2023-06-22T14:10:29;12.57;;;6.30;;
64235;SDS011;50564;47.402;9.740;2023-06-22T14:15:29;15.10;;;5.38;;
64235;SDS011;50564;47.402;9.740;2023-06-22T14:20:30;17.13;;;7.07;;
64235;SDS011;50564;47.402;9.740;2023-06-22T14:25:30;18.00;;;6.88;;
64235;SDS011;50564;47.402;9.740;2023-06-22T14:30:31;18.25;;;6.53;;
64235;SDS011;50564;47.402;9.740;2023-06-22T14:35:32;12.63;;;5.40;;
64235;SDS011;50564;47.402;9.740;2023-06-22T14:40:32;12.15;;;5.30;;
64235;SDS011;50564;47.402;9.740;2023-06-22T14:45:33;15.48;;;5.55;;
64235;SDS011;50564;47.402;9.740;2023-06-22T14:50:33;14.82;;;5.78;;
64235;SDS011;50564;47.402;9.740;2023-06-22T14:55:34;19.23;;;6.80;;
64235;SDS011;50564;47.402;9.740;2023-06-22T15:00:35;16.02;;;6.05;;
64235;SDS011;50564;47.402;9.740;2023-06-22T15:05:35;11.10;;;5.75;;
64235;SDS011;50564;47.402;9.740;2023-06-22T15:10:36;18.17;;;6.00;;
64235;SDS011;50564;47.402;9.740;2023-06-22T15:15:37;15.27;;;6.80;;
64235;SDS011;50564;47.402;9.740;2023-06-22T15:20:37;22.75;;;8.13;;
64235;SDS011;50564;47.402;9.740;2023-06-22T15:25:38;14.32;;;6.97;;
64235;SDS011;50564;47.402;9.740;2023-06-22T15:30:39;16.08;;;6.88;;
64235;SDS011;50564;47.402;9.740;2023-06-22T15:35:39;12.65;;;6.35;;
64235;SDS011;50564;47.402;9.740;2023-06-22T15:40:40;21.85;;;8.27;;
64235;SDS011;50564;47.402;9.740;2023-06-22T15:45:41;13.68;;;7.32;;
64235;SDS011;50564;47.402;9.740;2023-06-22T15:50:42;17.25;;;7.85;;
64235;SDS011;50564;47.402;9.740;2023-06-22T15:55:42;15.43;;;7.13;;
64235;SDS011;50564;47.402;9.740;2023-06-22T16:00:43;10.63;;;5.60;;
64235;SDS011;50564;47.402;9.740;2023-06-22T16:05:45;13.27;;;6.25;;
64235;SDS011;50564;47.402;9.740;2023-06-22T16:10:45;14.23;;;6.95;;
64235;SDS011;50564;47.402;9.740;2023-06-22T16:15:46;11.65;;;6.72;;
64235;SDS011;50564;47.402;9.740;2023-06-22T16:20:47;14.20;;;6.40;;
64235;SDS011;50564;47.402;9.740;2023-06-22T16:25:47;13.15;;;6.18;;
64235;SDS011;50564;47.402;9.740;2023-06-22T16:30:48;14.25;;;6.30;;
64235;SDS011;50564;47.402;9.740;2023-06-22T16:35:49;12.32;;;5.80;;
64235;SDS011;50564;47.402;9.740;2023-06-22T16:40:49;13.40;;;5.95;;
64235;SDS011;50564;47.402;9.740;2023-06-22T16:45:50;16.58;;;5.95;;
64235;SDS011;50564;47.402;9.740;2023-06-22T16:50:50;12.90;;;6.00;;
64235;SDS011;50564;47.402;9.740;2023-06-22T16:55:51;14.60;;;5.68;;
64235;SDS011;50564;47.402;9.740;2023-06-22T17:00:53;17.02;;;5.75;;
64235;SDS011;50564;47.402;9.740;2023-06-22T17:05:57;10.65;;;4.90;;
64235;SDS011;50564;47.402;9.740;2023-06-22T17:10:58;13.70;;;5.75;;
64235;SDS011;50564;47.402;9.740;2023-06-22T17:15:59;15.98;;;5.72;;
64235;SDS011;50564;47.402;9.740;2023-06-22T17:21:01;14.45;;;5.97;;
64235;SDS011;50564;47.402;9.740;2023-06-22T17:26:02;17.38;;;5.72;;
64235;SDS011;50564;47.402;9.740;2023-06-22T17:31:09;13.70;;;5.20;;
64235;SDS011;50564;47.402;9.740;2023-06-22T17:36:10;25.60;;;6.78;;
64235;SDS011;50564;47.402;9.740;2023-06-22T17:41:13;13.20;;;5.43;;
64235;SDS011;50564;47.402;9.740;2023-06-22T17:46:13;12.98;;;5.97;;
64235;SDS011;50564;47.402;9.740;2023-06-22T17:51:16;17.73;;;6.03;;
64235;SDS011;50564;47.402;9.740;2023-06-22T17:56:17;21.50;;;5.88;;
64235;SDS011;50564;47.402;9.740;2023-06-22T18:01:37;13.70;;;5.25;;
64235;SDS011;50564;47.402;9.740;2023-06-22T18:06:39;14.82;;;5.50;;
64235;SDS011;50564;47.402;9.740;2023-06-22T18:16:46;16.63;;;6.72;;
64235;SDS011;50564;47.402;9.740;2023-06-22T18:21:48;17.02;;;8.02;;
64235;SDS011;50564;47.402;9.740;2023-06-22T18:26:49;15.27;;;6.80;;
64235;SDS011;50564;47.402;9.740;2023-06-22T18:31:49;16.88;;;7.30;;
64235;SDS011;50564;47.402;9.740;2023-06-22T18:36:51;12.20;;;5.28;;
64235;SDS011;50564;47.402;9.740;2023-06-22T18:41:53;12.02;;;5.28;;
64235;SDS011;50564;47.402;9.740;2023-06-22T18:46:56;12.38;;;5.25;;
64235;SDS011;50564;47.402;9.740;2023-06-22T18:57:26;7.60;;;4.70;;
64235;SDS011;50564;47.402;9.740;2023-06-22T19:07:55;13.30;;;5.72;;
64235;SDS011;50564;47.402;9.740;2023-06-22T19:18:15;13.13;;;5.97;;
64235;SDS011;50564;47.402;9.740;2023-06-22T19:23:24;12.60;;;5.65;;
64235;SDS011;50564;47.402;9.740;2023-06-22T19:28:29;13.20;;;6.70;;
64235;SDS011;50564;47.402;9.740;2023-06-22T19:33:30;13.02;;;6.13;;
64235;SDS011;50564;47.402;9.740;2023-06-22T19:38:32;12.23;;;5.63;;
64235;SDS011;50564;47.402;9.740;2023-06-22T19:43:34;10.68;;;3.70;;
64235;SDS011;50564;47.402;9.740;2023-06-22T19:48:35;8.20;;;3.20;;
64235;SDS011;50564;47.402;9.740;2023-06-22T19:53:40;6.47;;;2.60;;
64235;SDS011;50564;47.402;9.740;2023-06-22T19:58:42;5.57;;;2.30;;
64235;SDS011;50564;47.402;9.740;2023-06-22T20:03:43;5.88;;;1.98;;
64235;SDS011;50564;47.402;9.740;2023-06-22T20:08:47;6.53;;;1.60;;
64235;SDS011;50564;47.402;9.740;2023-06-22T20:13:49;4.53;;;1.48;;
64235;SDS011;50564;47.402;9.740;2023-06-22T20:19:12;7.70;;;2.33;;
64235;SDS011;50564;47.402;9.740;2023-06-22T20:24:12;5.88;;;2.35;;
64235;SDS011;50564;47.402;9.740;2023-06-22T20:29:27;4.68;;;1.88;;
64235;SDS011;50564;47.402;9.740;2023-06-22T20:34:34;5.57;;;2.13;;
64235;SDS011;50564;47.402;9.740;2023-06-22T20:39:35;4.93;;;2.00;;
64235;SDS011;50564;47.402;9.740;2023-06-22T20:44:35;3.08;;;1.27;;
64235;SDS011;50564;47.402;9.740;2023-06-22T20:49:36;3.42;;;1.20;;
64235;SDS011;50564;47.402;9.740;2023-06-22T20:54:37;1.40;;;0.80;;
64235;SDS011;50564;47.402;9.740;2023-06-22T20:59:38;1.10;;;0.73;;
64235;SDS011;50564;47.402;9.740;2023-06-22T21:04:38;3.53;;;1.50;;
64235;SDS011;50564;47.402;9.740;2023-06-22T21:09:39;3.47;;;1.25;;
64235;SDS011;50564;47.402;9.740;2023-06-22T21:14:40;1.45;;;0.90;;
64235;SDS011;50564;47.402;9.740;2023-06-22T21:19:40;1.92;;;0.95;;
64235;SDS011;50564;47.402;9.740;2023-06-22T21:24:41;2.03;;;1.10;;
64235;SDS011;50564;47.402;9.740;2023-06-22T21:29:41;3.25;;;1.27;;
64235;SDS011;50564;47.402;9.740;2023-06-22T21:34:42;4.93;;;1.30;;
64235;SDS011;50564;47.402;9.740;2023-06-22T21:39:46;3.72;;;1.60;;
64235;SDS011;50564;47.402;9.740;2023-06-22T21:44:47;3.55;;;1.67;;
64235;SDS011;50564;47.402;9.740;2023-06-22T21:49:48;4.03;;;1.13;;
64235;SDS011;50564;47.402;9.740;2023-06-22T21:54:49;1.98;;;1.05;;
64235;SDS011;50564;47.402;9.740;2023-06-22T21:59:49;3.42;;;1.25;;
64235;SDS011;50564;47.402;9.740;2023-06-22T22:04:50;4.65;;;1.02;;
64235;SDS011;50564;47.402;9.740;2023-06-22T22:09:54;2.15;;;1.20;;
64235;SDS011;50564;47.402;9.740;2023-06-22T22:14:54;3.70;;;1.35;;
64235;SDS011;50564;47.402;9.740;2023-06-22T22:19:55;3.63;;;1.20;;
64235;SDS011;50564;47.402;9.740;2023-06-22T22:24:55;1.35;;;1.13;;
64235;SDS011;50564;47.402;9.740;2023-06-22T22:29:56;2.88;;;1.48;;
64235;SDS011;50564;47.402;9.740;2023-06-22T22:34:57;2.08;;;1.27;;
64235;SDS011;50564;47.402;9.740;2023-06-22T22:39:57;2.63;;;1.40;;
64235;SDS011;50564;47.402;9.740;2023-06-22T22:44:58;2.70;;;1.42;;
64235;SDS011;50564;47.402;9.740;2023-06-22T22:49:59;2.58;;;1.25;;
64235;SDS011;50564;47.402;9.740;2023-06-22T22:55:02;2.95;;;1.38;;
64235;SDS011;50564;47.402;9.740;2023-06-22T23:00:04;2.30;;;1.27;;
64235;SDS011;50564;47.402;9.740;2023-06-22T23:05:09;3.47;;;1.23;;
64235;SDS011;50564;47.402;9.740;2023-06-22T23:10:11;3.17;;;1.35;;
64235;SDS011;50564;47.402;9.740;2023-06-22T23:15:12;2.80;;;1.42;;
64235;SDS011;50564;47.402;9.740;2023-06-22T23:20:13;3.00;;;1.45;;
64235;SDS011;50564;47.402;9.740;2023-06-22T23:25:19;2.53;;;1.45;;
64235;SDS011;50564;47.402;9.740;2023-06-22T23:30:19;2.40;;;1.10;;
64235;SDS011;50564;47.402;9.740;2023-06-22T23:35:20;2.00;;;1.27;;
64235;SDS011;50564;47.402;9.740;2023-06-22T23:40:21;1.45;;;1.10;;
64235;SDS011;50564;47.402;9.740;2023-06-22T23:45:21;2.17;;;1.15;;
64235;SDS011;50564;47.402;9.740;2023-06-22T23:50:22;2.10;;;1.17;;
64235;SDS011;50564;47.402;9.740;2023-06-22T23:55:23;1.75;;;1.10;;
